Feather Falls, CA (95940)

12:49 PM PST on December 17, 2014 (GMT -0800)
Oroville - Sierra@Butte | Change Station
CLOSE
Current Station
Personal Weather Station
Location: Oroville, CA
Elevation: 250 ft
Nearby Weather Stations

Elev 250 ft 39.51 °N, 121.55 °W | Updated 2 minutes ago

Overcast
Overcast
53.1 °F
Feels Like 53.1 °F
N
0.0
Wind Variable Wind from North
Gusts 0.0 mph

Today
High -- | Low -- °F
--% Chance of Precip.
Yesterday
High -- | Low -- °F
Precip. -- in
7:20 AM 4:44 PM
Waning Crescent, 20% visible
Pressure 30.02 in
Visibility 10.0 miles
Clouds Overcast 1400 ft
Dew Point 50 °F
Humidity 89%
Rainfall 0.05 in
Snow Depth Not available.
UV 1 out of 12
Pollen .60 out of 12
Air Quality Not available.
Flu Activity Not available.
METAR KOVE 171953Z AUTO 14013KT 10SM OVC014 12/09 A3002 RMK AO2 SLP166 T01170089

More Conditions Fewer Conditions

Pressure 30.02 in
Visibility 10.0 miles
Clouds Overcast 1400 ft
Dew Point 50 °F
Humidity 89%
Rainfall 0.05 in
Snow Depth Not available.
UV 1 out of 12
Pollen .60 out of 12
Air Quality Not available.
Flu Activity Not available.
METAR KOVE 171953Z AUTO 14013KT 10SM OVC014 12/09 A3002 RMK AO2 SLP166 T01170089

More Conditions Fewer Conditions

10-Day Weather Forecast

Almanac

Astronomy

Dec. 17, 2014 Rise Set
Actual Time
Civil Twilight
Nautical Twilight
Astronomical Twilight
Moon
Length of Visible Light
Length of Day
Tomorrow will be .
, % of the Moon is Illuminated

Today's Extremes

State Highs State Lows

Community

WunderPhotos

Upload Photos

1,778,803 photos uploaded!

WunderBlogs® & News

Nearby

Air Quality

  Air Quality AQ Index Pollutant
Not available.

Snow Depth

Station Depth Elevation

Earthquake Activity

City Distance Mag. Time & Date
Minimum magnitude displayed is 2.5.

Coastal Water Temperatures

Place Temperature

Nearby Weather Stations